<?xml version="1.0" encoding="UTF-8" standalone="no" ?>
<gpx xmlns="http://www.topografix.com/GPX/1/1" xmlns:xsi="http://www.w3.org/2001/XMLSchema-instance" xsi:schemaLocation="http://www.topografix.com/GPX/1/1 http://www.topografix.com/GPX/1/1/gpx.xsd" version="1.1" creator="VisuGPX - https://www.visugpx.com">
  <metadata>
    <name>3ème étape PLM 2018</name>
    <desc><![CDATA[3ème étape PLM 2018 : St Ouen du Tilleul - Louvetot]]></desc>
  </metadata>
  <trk>
    <name><![CDATA[OR-8158096--Petit-Couronne:Petit-Couronne - Louvetot]]></name>
    <trkseg>
      <trkpt lat="49.3906" lon="1.03142">
        <ele>38</ele>
        <time>2017-12-21T14:00:00Z</time>
      </trkpt>
      <trkpt lat="49.39049" lon="1.03203">
        <ele>40</ele>
        <time>2017-12-21T14:02:00Z</time>
      </trkpt>
      <trkpt lat="49.38875" lon="1.03177">
        <ele>43</ele>
        <time>2017-12-21T14:04:00Z</time>
      </trkpt>
      <trkpt lat="49.38871" lon="1.03158">
        <ele>43</ele>
        <time>2017-12-21T14:06:00Z</time>
      </trkpt>
      <trkpt lat="49.38859" lon="1.03161">
        <ele>43</ele>
        <time>2017-12-21T14:08:00Z</time>
      </trkpt>
      <trkpt lat="49.38852" lon="1.03141">
        <ele>42</ele>
        <time>2017-12-21T14:10:00Z</time>
      </trkpt>
      <trkpt lat="49.38852" lon="1.03107">
        <ele>41</ele>
        <time>2017-12-21T14:12:00Z</time>
      </trkpt>
      <trkpt lat="49.38854" lon="1.03088">
        <ele>41</ele>
        <time>2017-12-21T14:14:00Z</time>
      </trkpt>
      <trkpt lat="49.38866" lon="1.0304">
        <ele>39</ele>
        <time>2017-12-21T14:16:00Z</time>
      </trkpt>
      <trkpt lat="49.38739" lon="1.02969">
        <ele>33</ele>
        <time>2017-12-21T14:18:00Z</time>
      </trkpt>
      <trkpt lat="49.38719" lon="1.02977">
        <ele>31</ele>
        <time>2017-12-21T14:20:00Z</time>
      </trkpt>
      <trkpt lat="49.38701" lon="1.03002">
        <ele>30</ele>
        <time>2017-12-21T14:22:00Z</time>
      </trkpt>
      <trkpt lat="49.38688" lon="1.03007">
        <ele>29</ele>
        <time>2017-12-21T14:24:00Z</time>
      </trkpt>
      <trkpt lat="49.3871" lon="1.02927">
        <ele>26</ele>
        <time>2017-12-21T14:26:00Z</time>
      </trkpt>
      <trkpt lat="49.38721" lon="1.02847">
        <ele>23</ele>
        <time>2017-12-21T14:28:00Z</time>
      </trkpt>
      <trkpt lat="49.38716" lon="1.02822">
        <ele>22</ele>
        <time>2017-12-21T14:30:00Z</time>
      </trkpt>
      <trkpt lat="49.38717" lon="1.02805">
        <ele>22</ele>
        <time>2017-12-21T14:32:00Z</time>
      </trkpt>
      <trkpt lat="49.38815" lon="1.02549">
        <ele>21</ele>
        <time>2017-12-21T14:34:00Z</time>
      </trkpt>
      <trkpt lat="49.38822" lon="1.02452">
        <ele>16</ele>
        <time>2017-12-21T14:36:00Z</time>
      </trkpt>
      <trkpt lat="49.38812" lon="1.02385">
        <ele>14</ele>
        <time>2017-12-21T14:38:00Z</time>
      </trkpt>
      <trkpt lat="49.38811" lon="1.02328">
        <ele>13</ele>
        <time>2017-12-21T14:40:00Z</time>
      </trkpt>
      <trkpt lat="49.38815" lon="1.02278">
        <ele>11</ele>
        <time>2017-12-21T14:42:00Z</time>
      </trkpt>
      <trkpt lat="49.38704" lon="1.02245">
        <ele>15</ele>
        <time>2017-12-21T14:44:00Z</time>
      </trkpt>
      <trkpt lat="49.38697" lon="1.02226">
        <ele>15</ele>
        <time>2017-12-21T14:46:00Z</time>
      </trkpt>
      <trkpt lat="49.38687" lon="1.0224">
        <ele>15</ele>
        <time>2017-12-21T14:48:00Z</time>
      </trkpt>
      <trkpt lat="49.38572" lon="1.02206">
        <ele>19</ele>
        <time>2017-12-21T14:50:00Z</time>
      </trkpt>
      <trkpt lat="49.38514" lon="1.02184">
        <ele>19</ele>
        <time>2017-12-21T14:52:00Z</time>
      </trkpt>
      <trkpt lat="49.38445" lon="1.0215">
        <ele>18</ele>
        <time>2017-12-21T14:54:00Z</time>
      </trkpt>
      <trkpt lat="49.38445" lon="1.02127">
        <ele>17</ele>
        <time>2017-12-21T14:56:00Z</time>
      </trkpt>
      <trkpt lat="49.38433" lon="1.02115">
        <ele>16</ele>
        <time>2017-12-21T14:58:00Z</time>
      </trkpt>
      <trkpt lat="49.38419" lon="1.0213">
        <ele>17</ele>
        <time>2017-12-21T15:00:00Z</time>
      </trkpt>
      <trkpt lat="49.38355" lon="1.0211">
        <ele>18</ele>
        <time>2017-12-21T15:02:00Z</time>
      </trkpt>
      <trkpt lat="49.38345" lon="1.02092">
        <ele>17</ele>
        <time>2017-12-21T15:04:00Z</time>
      </trkpt>
      <trkpt lat="49.38321" lon="1.02077">
        <ele>17</ele>
        <time>2017-12-21T15:06:00Z</time>
      </trkpt>
      <trkpt lat="49.38288" lon="1.02077">
        <ele>18</ele>
        <time>2017-12-21T15:08:00Z</time>
      </trkpt>
      <trkpt lat="49.38377" lon="1.01596">
        <ele>7</ele>
        <time>2017-12-21T15:10:00Z</time>
      </trkpt>
      <trkpt lat="49.38382" lon="1.01565">
        <ele>6</ele>
        <time>2017-12-21T15:12:00Z</time>
      </trkpt>
      <trkpt lat="49.38489" lon="1.01261">
        <ele>6</ele>
        <time>2017-12-21T15:14:00Z</time>
      </trkpt>
      <trkpt lat="49.38541" lon="1.01185">
        <ele>5</ele>
        <time>2017-12-21T15:16:00Z</time>
      </trkpt>
      <trkpt lat="49.38596" lon="1.0083">
        <ele>1</ele>
        <time>2017-12-21T15:18:00Z</time>
      </trkpt>
      <trkpt lat="49.38567" lon="1.00778">
        <ele>3</ele>
        <time>2017-12-21T15:20:00Z</time>
      </trkpt>
      <trkpt lat="49.38553" lon="1.00811">
        <ele>2</ele>
        <time>2017-12-21T15:22:00Z</time>
      </trkpt>
      <trkpt lat="49.38493" lon="1.00802">
        <ele>3</ele>
        <time>2017-12-21T15:24:00Z</time>
      </trkpt>
      <trkpt lat="49.38442" lon="1.00705">
        <ele>4</ele>
        <time>2017-12-21T15:26:00Z</time>
      </trkpt>
      <trkpt lat="49.38273" lon="1.00684">
        <ele>2</ele>
        <time>2017-12-21T15:28:00Z</time>
      </trkpt>
      <trkpt lat="49.3784" lon="1.00422">
        <ele>5</ele>
        <time>2017-12-21T15:30:00Z</time>
      </trkpt>
      <trkpt lat="49.37861" lon="1.00349">
        <ele>5</ele>
        <time>2017-12-21T15:32:00Z</time>
      </trkpt>
      <trkpt lat="49.37896" lon="1.00236">
        <ele>5</ele>
        <time>2017-12-21T15:34:00Z</time>
      </trkpt>
      <trkpt lat="49.37931" lon="1.00167">
        <ele>11</ele>
        <time>2017-12-21T15:36:00Z</time>
      </trkpt>
      <trkpt lat="49.37944" lon="1.00098">
        <ele>19</ele>
        <time>2017-12-21T15:38:00Z</time>
      </trkpt>
      <trkpt lat="49.37962" lon="1.00053">
        <ele>25</ele>
        <time>2017-12-21T15:40:00Z</time>
      </trkpt>
      <trkpt lat="49.38021" lon="0.99856">
        <ele>37</ele>
        <time>2017-12-21T15:42:00Z</time>
      </trkpt>
      <trkpt lat="49.38037" lon="0.99796">
        <ele>40</ele>
        <time>2017-12-21T15:44:00Z</time>
      </trkpt>
      <trkpt lat="49.38124" lon="0.99633">
        <ele>48</ele>
        <time>2017-12-21T15:46:00Z</time>
      </trkpt>
      <trkpt lat="49.38162" lon="0.99525">
        <ele>51</ele>
        <time>2017-12-21T15:48:00Z</time>
      </trkpt>
      <trkpt lat="49.3819" lon="0.99403">
        <ele>58</ele>
        <time>2017-12-21T15:50:00Z</time>
      </trkpt>
      <trkpt lat="49.38226" lon="0.99139">
        <ele>72</ele>
        <time>2017-12-21T15:52:00Z</time>
      </trkpt>
      <trkpt lat="49.38237" lon="0.98987">
        <ele>84</ele>
        <time>2017-12-21T15:54:00Z</time>
      </trkpt>
      <trkpt lat="49.38258" lon="0.98862">
        <ele>87</ele>
        <time>2017-12-21T15:56:00Z</time>
      </trkpt>
      <trkpt lat="49.38313" lon="0.98435">
        <ele>85</ele>
        <time>2017-12-21T15:58:00Z</time>
      </trkpt>
      <trkpt lat="49.38303" lon="0.98195">
        <ele>86</ele>
        <time>2017-12-21T16:00:00Z</time>
      </trkpt>
      <trkpt lat="49.38473" lon="0.97991">
        <ele>93</ele>
        <time>2017-12-21T16:02:00Z</time>
      </trkpt>
      <trkpt lat="49.38709" lon="0.9821">
        <ele>105</ele>
        <time>2017-12-21T16:04:00Z</time>
      </trkpt>
      <trkpt lat="49.40137" lon="0.99525">
        <ele>119</ele>
        <time>2017-12-21T16:06:00Z</time>
      </trkpt>
      <trkpt lat="49.40839" lon="0.99201">
        <ele>122</ele>
        <time>2017-12-21T16:08:00Z</time>
      </trkpt>
      <trkpt lat="49.40877" lon="0.99208">
        <ele>124</ele>
        <time>2017-12-21T16:10:00Z</time>
      </trkpt>
      <trkpt lat="49.40879" lon="0.99173">
        <ele>125</ele>
        <time>2017-12-21T16:12:00Z</time>
      </trkpt>
      <trkpt lat="49.41439" lon="0.98279">
        <ele>125</ele>
        <time>2017-12-21T16:14:00Z</time>
      </trkpt>
      <trkpt lat="49.42909" lon="0.98697">
        <ele>55</ele>
        <time>2017-12-21T16:16:00Z</time>
      </trkpt>
      <trkpt lat="49.43422" lon="0.98847">
        <ele>58</ele>
        <time>2017-12-21T16:18:00Z</time>
      </trkpt>
      <trkpt lat="49.43523" lon="0.988">
        <ele>65</ele>
        <time>2017-12-21T16:20:00Z</time>
      </trkpt>
      <trkpt lat="49.43632" lon="0.98813">
        <ele>66</ele>
        <time>2017-12-21T16:22:00Z</time>
      </trkpt>
      <trkpt lat="49.43799" lon="0.9871">
        <ele>72</ele>
        <time>2017-12-21T16:24:00Z</time>
      </trkpt>
      <trkpt lat="49.4417" lon="0.98894">
        <ele>75</ele>
        <time>2017-12-21T16:26:00Z</time>
      </trkpt>
      <trkpt lat="49.44282" lon="0.98843">
        <ele>75</ele>
        <time>2017-12-21T16:28:00Z</time>
      </trkpt>
      <trkpt lat="49.44486" lon="0.99148">
        <ele>79</ele>
        <time>2017-12-21T16:30:00Z</time>
      </trkpt>
      <trkpt lat="49.44486" lon="0.99049">
        <ele>77</ele>
        <time>2017-12-21T16:32:00Z</time>
      </trkpt>
      <trkpt lat="49.44624" lon="0.98407">
        <ele>89</ele>
        <time>2017-12-21T16:34:00Z</time>
      </trkpt>
      <trkpt lat="49.44599" lon="0.98354">
        <ele>90</ele>
        <time>2017-12-21T16:36:00Z</time>
      </trkpt>
      <trkpt lat="49.44579" lon="0.98085">
        <ele>91</ele>
        <time>2017-12-21T16:38:00Z</time>
      </trkpt>
      <trkpt lat="49.44214" lon="0.97635">
        <ele>95</ele>
        <time>2017-12-21T16:40:00Z</time>
      </trkpt>
      <trkpt lat="49.44211" lon="0.9757">
        <ele>92</ele>
        <time>2017-12-21T16:42:00Z</time>
      </trkpt>
      <trkpt lat="49.44288" lon="0.97221">
        <ele>82</ele>
        <time>2017-12-21T16:44:00Z</time>
      </trkpt>
      <trkpt lat="49.44286" lon="0.97178">
        <ele>80</ele>
        <time>2017-12-21T16:46:00Z</time>
      </trkpt>
      <trkpt lat="49.44288" lon="0.97118">
        <ele>77</ele>
        <time>2017-12-21T16:48:00Z</time>
      </trkpt>
      <trkpt lat="49.44317" lon="0.96959">
        <ele>59</ele>
        <time>2017-12-21T16:50:00Z</time>
      </trkpt>
      <trkpt lat="49.44338" lon="0.96781">
        <ele>37</ele>
        <time>2017-12-21T16:52:00Z</time>
      </trkpt>
      <trkpt lat="49.44353" lon="0.96618">
        <ele>26</ele>
        <time>2017-12-21T16:54:00Z</time>
      </trkpt>
      <trkpt lat="49.44362" lon="0.96367">
        <ele>17</ele>
        <time>2017-12-21T16:56:00Z</time>
      </trkpt>
      <trkpt lat="49.44413" lon="0.96371">
        <ele>17</ele>
        <time>2017-12-21T16:58:00Z</time>
      </trkpt>
      <trkpt lat="49.44441" lon="0.96337">
        <ele>14</ele>
        <time>2017-12-21T17:00:00Z</time>
      </trkpt>
      <trkpt lat="49.44565" lon="0.96403">
        <ele>12</ele>
        <time>2017-12-21T17:02:00Z</time>
      </trkpt>
      <trkpt lat="49.44627" lon="0.9645">
        <ele>10</ele>
        <time>2017-12-21T17:04:00Z</time>
      </trkpt>
      <trkpt lat="49.4473" lon="0.96487">
        <ele>8</ele>
        <time>2017-12-21T17:06:00Z</time>
      </trkpt>
      <trkpt lat="49.44779" lon="0.96444">
        <ele>7</ele>
        <time>2017-12-21T17:08:00Z</time>
      </trkpt>
      <trkpt lat="49.44918" lon="0.96487">
        <ele>10</ele>
        <time>2017-12-21T17:10:00Z</time>
      </trkpt>
      <trkpt lat="49.45007" lon="0.96373">
        <ele>9</ele>
        <time>2017-12-21T17:12:00Z</time>
      </trkpt>
      <trkpt lat="49.45189" lon="0.9624">
        <ele>9</ele>
        <time>2017-12-21T17:14:00Z</time>
      </trkpt>
      <trkpt lat="49.45314" lon="0.96167">
        <ele>10</ele>
        <time>2017-12-21T17:16:00Z</time>
      </trkpt>
      <trkpt lat="49.45416" lon="0.96236">
        <ele>17</ele>
        <time>2017-12-21T17:18:00Z</time>
      </trkpt>
      <trkpt lat="49.45476" lon="0.96285">
        <ele>25</ele>
        <time>2017-12-21T17:20:00Z</time>
      </trkpt>
      <trkpt lat="49.45532" lon="0.96354">
        <ele>36</ele>
        <time>2017-12-21T17:22:00Z</time>
      </trkpt>
      <trkpt lat="49.4559" lon="0.96401">
        <ele>46</ele>
        <time>2017-12-21T17:24:00Z</time>
      </trkpt>
      <trkpt lat="49.45698" lon="0.96444">
        <ele>58</ele>
        <time>2017-12-21T17:26:00Z</time>
      </trkpt>
      <trkpt lat="49.45769" lon="0.96425">
        <ele>64</ele>
        <time>2017-12-21T17:28:00Z</time>
      </trkpt>
      <trkpt lat="49.4584" lon="0.96407">
        <ele>72</ele>
        <time>2017-12-21T17:30:00Z</time>
      </trkpt>
      <trkpt lat="49.45966" lon="0.96358">
        <ele>81</ele>
        <time>2017-12-21T17:32:00Z</time>
      </trkpt>
      <trkpt lat="49.46056" lon="0.96313">
        <ele>83</ele>
        <time>2017-12-21T17:34:00Z</time>
      </trkpt>
      <trkpt lat="49.4615" lon="0.96279">
        <ele>91</ele>
        <time>2017-12-21T17:36:00Z</time>
      </trkpt>
      <trkpt lat="49.46229" lon="0.9627">
        <ele>105</ele>
        <time>2017-12-21T17:38:00Z</time>
      </trkpt>
      <trkpt lat="49.46313" lon="0.96307">
        <ele>118</ele>
        <time>2017-12-21T17:40:00Z</time>
      </trkpt>
      <trkpt lat="49.46385" lon="0.96294">
        <ele>128</ele>
        <time>2017-12-21T17:42:00Z</time>
      </trkpt>
      <trkpt lat="49.46466" lon="0.96176">
        <ele>130</ele>
        <time>2017-12-21T17:44:00Z</time>
      </trkpt>
      <trkpt lat="49.46549" lon="0.96144">
        <ele>132</ele>
        <time>2017-12-21T17:46:00Z</time>
      </trkpt>
      <trkpt lat="49.46659" lon="0.96011">
        <ele>131</ele>
        <time>2017-12-21T17:48:00Z</time>
      </trkpt>
      <trkpt lat="49.4673" lon="0.95976">
        <ele>131</ele>
        <time>2017-12-21T17:50:00Z</time>
      </trkpt>
      <trkpt lat="49.46791" lon="0.9594">
        <ele>131</ele>
        <time>2017-12-21T17:52:00Z</time>
      </trkpt>
      <trkpt lat="49.46899" lon="0.95905">
        <ele>135</ele>
        <time>2017-12-21T17:54:00Z</time>
      </trkpt>
      <trkpt lat="49.47021" lon="0.95807">
        <ele>135</ele>
        <time>2017-12-21T17:56:00Z</time>
      </trkpt>
      <trkpt lat="49.47154" lon="0.95753">
        <ele>135</ele>
        <time>2017-12-21T17:58:00Z</time>
      </trkpt>
      <trkpt lat="49.47225" lon="0.95616">
        <ele>127</ele>
        <time>2017-12-21T18:00:00Z</time>
      </trkpt>
      <trkpt lat="49.47251" lon="0.95502">
        <ele>129</ele>
        <time>2017-12-21T18:02:00Z</time>
      </trkpt>
      <trkpt lat="49.47309" lon="0.95401">
        <ele>126</ele>
        <time>2017-12-21T18:04:00Z</time>
      </trkpt>
      <trkpt lat="49.47349" lon="0.95373">
        <ele>127</ele>
        <time>2017-12-21T18:06:00Z</time>
      </trkpt>
      <trkpt lat="49.47396" lon="0.95545">
        <ele>126</ele>
        <time>2017-12-21T18:08:00Z</time>
      </trkpt>
      <trkpt lat="49.47396" lon="0.9568">
        <ele>125</ele>
        <time>2017-12-21T18:10:00Z</time>
      </trkpt>
      <trkpt lat="49.47433" lon="0.95777">
        <ele>126</ele>
        <time>2017-12-21T18:12:00Z</time>
      </trkpt>
      <trkpt lat="49.47437" lon="0.95605">
        <ele>125</ele>
        <time>2017-12-21T18:14:00Z</time>
      </trkpt>
      <trkpt lat="49.47475" lon="0.95511">
        <ele>116</ele>
        <time>2017-12-21T18:16:00Z</time>
      </trkpt>
      <trkpt lat="49.47548" lon="0.95405">
        <ele>104</ele>
        <time>2017-12-21T18:18:00Z</time>
      </trkpt>
      <trkpt lat="49.47663" lon="0.95322">
        <ele>88</ele>
        <time>2017-12-21T18:20:00Z</time>
      </trkpt>
      <trkpt lat="49.47731" lon="0.95221">
        <ele>79</ele>
        <time>2017-12-21T18:22:00Z</time>
      </trkpt>
      <trkpt lat="49.47742" lon="0.95347">
        <ele>89</ele>
        <time>2017-12-21T18:24:00Z</time>
      </trkpt>
      <trkpt lat="49.47919" lon="0.9521">
        <ele>116</ele>
        <time>2017-12-21T18:26:00Z</time>
      </trkpt>
      <trkpt lat="49.47944" lon="0.9524">
        <ele>121</ele>
        <time>2017-12-21T18:28:00Z</time>
      </trkpt>
      <trkpt lat="49.4801" lon="0.95081">
        <ele>124</ele>
        <time>2017-12-21T18:30:00Z</time>
      </trkpt>
      <trkpt lat="49.4802" lon="0.95028">
        <ele>126</ele>
        <time>2017-12-21T18:32:00Z</time>
      </trkpt>
      <trkpt lat="49.48056" lon="0.94961">
        <ele>128</ele>
        <time>2017-12-21T18:34:00Z</time>
      </trkpt>
      <trkpt lat="49.48073" lon="0.94856">
        <ele>130</ele>
        <time>2017-12-21T18:36:00Z</time>
      </trkpt>
      <trkpt lat="49.48073" lon="0.94714">
        <ele>127</ele>
        <time>2017-12-21T18:38:00Z</time>
      </trkpt>
      <trkpt lat="49.48088" lon="0.94646">
        <ele>126</ele>
        <time>2017-12-21T18:40:00Z</time>
      </trkpt>
      <trkpt lat="49.48123" lon="0.94599">
        <ele>124</ele>
        <time>2017-12-21T18:42:00Z</time>
      </trkpt>
      <trkpt lat="49.48144" lon="0.94562">
        <ele>123</ele>
        <time>2017-12-21T18:44:00Z</time>
      </trkpt>
      <trkpt lat="49.48091" lon="0.94367">
        <ele>121</ele>
        <time>2017-12-21T18:46:00Z</time>
      </trkpt>
      <trkpt lat="49.48114" lon="0.94313">
        <ele>122</ele>
        <time>2017-12-21T18:48:00Z</time>
      </trkpt>
      <trkpt lat="49.4813" lon="0.94272">
        <ele>122</ele>
        <time>2017-12-21T18:50:00Z</time>
      </trkpt>
      <trkpt lat="49.48137" lon="0.94197">
        <ele>123</ele>
        <time>2017-12-21T18:52:00Z</time>
      </trkpt>
      <trkpt lat="49.48155" lon="0.94131">
        <ele>123</ele>
        <time>2017-12-21T18:54:00Z</time>
      </trkpt>
      <trkpt lat="49.48158" lon="0.94045">
        <ele>120</ele>
        <time>2017-12-21T18:56:00Z</time>
      </trkpt>
      <trkpt lat="49.48151" lon="0.93987">
        <ele>116</ele>
        <time>2017-12-21T18:58:00Z</time>
      </trkpt>
      <trkpt lat="49.48149" lon="0.93852">
        <ele>107</ele>
        <time>2017-12-21T19:00:00Z</time>
      </trkpt>
      <trkpt lat="49.4818" lon="0.93809">
        <ele>105</ele>
        <time>2017-12-21T19:02:00Z</time>
      </trkpt>
      <trkpt lat="49.48187" lon="0.93665">
        <ele>92</ele>
        <time>2017-12-21T19:04:00Z</time>
      </trkpt>
      <trkpt lat="49.48208" lon="0.93607">
        <ele>90</ele>
        <time>2017-12-21T19:06:00Z</time>
      </trkpt>
      <trkpt lat="49.4823" lon="0.93551">
        <ele>90</ele>
        <time>2017-12-21T19:08:00Z</time>
      </trkpt>
      <trkpt lat="49.48252" lon="0.93491">
        <ele>92</ele>
        <time>2017-12-21T19:10:00Z</time>
      </trkpt>
      <trkpt lat="49.48382" lon="0.9323">
        <ele>95</ele>
        <time>2017-12-21T19:12:00Z</time>
      </trkpt>
      <trkpt lat="49.48378" lon="0.93124">
        <ele>76</ele>
        <time>2017-12-21T19:14:00Z</time>
      </trkpt>
      <trkpt lat="49.48396" lon="0.93052">
        <ele>68</ele>
        <time>2017-12-21T19:16:00Z</time>
      </trkpt>
      <trkpt lat="49.484" lon="0.93015">
        <ele>65</ele>
        <time>2017-12-21T19:18:00Z</time>
      </trkpt>
      <trkpt lat="49.48425" lon="0.92936">
        <ele>63</ele>
        <time>2017-12-21T19:20:00Z</time>
      </trkpt>
      <trkpt lat="49.48423" lon="0.92891">
        <ele>62</ele>
        <time>2017-12-21T19:22:00Z</time>
      </trkpt>
      <trkpt lat="49.48455" lon="0.92813">
        <ele>54</ele>
        <time>2017-12-21T19:24:00Z</time>
      </trkpt>
      <trkpt lat="49.48473" lon="0.92736">
        <ele>49</ele>
        <time>2017-12-21T19:26:00Z</time>
      </trkpt>
      <trkpt lat="49.48476" lon="0.92693">
        <ele>45</ele>
        <time>2017-12-21T19:28:00Z</time>
      </trkpt>
      <trkpt lat="49.48494" lon="0.9269">
        <ele>46</ele>
        <time>2017-12-21T19:30:00Z</time>
      </trkpt>
      <trkpt lat="49.48534" lon="0.9277">
        <ele>42</ele>
        <time>2017-12-21T19:32:00Z</time>
      </trkpt>
      <trkpt lat="49.48549" lon="0.92756">
        <ele>38</ele>
        <time>2017-12-21T19:34:00Z</time>
      </trkpt>
      <trkpt lat="49.48567" lon="0.92707">
        <ele>31</ele>
        <time>2017-12-21T19:36:00Z</time>
      </trkpt>
      <trkpt lat="49.48573" lon="0.92612">
        <ele>21</ele>
        <time>2017-12-21T19:38:00Z</time>
      </trkpt>
      <trkpt lat="49.48516" lon="0.92412">
        <ele>11</ele>
        <time>2017-12-21T19:40:00Z</time>
      </trkpt>
      <trkpt lat="49.48469" lon="0.92376">
        <ele>9</ele>
        <time>2017-12-21T19:42:00Z</time>
      </trkpt>
      <trkpt lat="49.48512" lon="0.92144">
        <ele>18</ele>
        <time>2017-12-21T19:44:00Z</time>
      </trkpt>
      <trkpt lat="49.48552" lon="0.9209">
        <ele>30</ele>
        <time>2017-12-21T19:46:00Z</time>
      </trkpt>
      <trkpt lat="49.48577" lon="0.92101">
        <ele>38</ele>
        <time>2017-12-21T19:48:00Z</time>
      </trkpt>
      <trkpt lat="49.48576" lon="0.92165">
        <ele>37</ele>
        <time>2017-12-21T19:50:00Z</time>
      </trkpt>
      <trkpt lat="49.48629" lon="0.9221">
        <ele>53</ele>
        <time>2017-12-21T19:52:00Z</time>
      </trkpt>
      <trkpt lat="49.48665" lon="0.92279">
        <ele>63</ele>
        <time>2017-12-21T19:54:00Z</time>
      </trkpt>
      <trkpt lat="49.48976" lon="0.92526">
        <ele>104</ele>
        <time>2017-12-21T19:56:00Z</time>
      </trkpt>
      <trkpt lat="49.49002" lon="0.92526">
        <ele>108</ele>
        <time>2017-12-21T19:58:00Z</time>
      </trkpt>
      <trkpt lat="49.49114" lon="0.92453">
        <ele>116</ele>
        <time>2017-12-21T20:00:00Z</time>
      </trkpt>
      <trkpt lat="49.49227" lon="0.9283">
        <ele>117</ele>
        <time>2017-12-21T20:02:00Z</time>
      </trkpt>
      <trkpt lat="49.49389" lon="0.92951">
        <ele>120</ele>
        <time>2017-12-21T20:04:00Z</time>
      </trkpt>
      <trkpt lat="49.49684" lon="0.92903">
        <ele>123</ele>
        <time>2017-12-21T20:06:00Z</time>
      </trkpt>
      <trkpt lat="49.49846" lon="0.92946">
        <ele>120</ele>
        <time>2017-12-21T20:08:00Z</time>
      </trkpt>
      <trkpt lat="49.49935" lon="0.92985">
        <ele>120</ele>
        <time>2017-12-21T20:10:00Z</time>
      </trkpt>
      <trkpt lat="49.50027" lon="0.92925">
        <ele>120</ele>
        <time>2017-12-21T20:12:00Z</time>
      </trkpt>
      <trkpt lat="49.50105" lon="0.93105">
        <ele>123</ele>
        <time>2017-12-21T20:14:00Z</time>
      </trkpt>
      <trkpt lat="49.50105" lon="0.93165">
        <ele>123</ele>
        <time>2017-12-21T20:16:00Z</time>
      </trkpt>
      <trkpt lat="49.50197" lon="0.93118">
        <ele>121</ele>
        <time>2017-12-21T20:18:00Z</time>
      </trkpt>
      <trkpt lat="49.50381" lon="0.93032">
        <ele>117</ele>
        <time>2017-12-21T20:20:00Z</time>
      </trkpt>
      <trkpt lat="49.50531" lon="0.93045">
        <ele>116</ele>
        <time>2017-12-21T20:22:00Z</time>
      </trkpt>
      <trkpt lat="49.50565" lon="0.92976">
        <ele>117</ele>
        <time>2017-12-21T20:24:00Z</time>
      </trkpt>
      <trkpt lat="49.50818" lon="0.92659">
        <ele>117</ele>
        <time>2017-12-21T20:26:00Z</time>
      </trkpt>
      <trkpt lat="49.50899" lon="0.92564">
        <ele>115</ele>
        <time>2017-12-21T20:28:00Z</time>
      </trkpt>
      <trkpt lat="49.50949" lon="0.92444">
        <ele>115</ele>
        <time>2017-12-21T20:30:00Z</time>
      </trkpt>
      <trkpt lat="49.50997" lon="0.92444">
        <ele>113</ele>
        <time>2017-12-21T20:32:00Z</time>
      </trkpt>
      <trkpt lat="49.51217" lon="0.92234">
        <ele>104</ele>
        <time>2017-12-21T20:34:00Z</time>
      </trkpt>
      <trkpt lat="49.51278" lon="0.92341">
        <ele>100</ele>
        <time>2017-12-21T20:36:00Z</time>
      </trkpt>
      <trkpt lat="49.51286" lon="0.92264">
        <ele>97</ele>
        <time>2017-12-21T20:38:00Z</time>
      </trkpt>
      <trkpt lat="49.51328" lon="0.92204">
        <ele>90</ele>
        <time>2017-12-21T20:40:00Z</time>
      </trkpt>
      <trkpt lat="49.51384" lon="0.92191">
        <ele>79</ele>
        <time>2017-12-21T20:42:00Z</time>
      </trkpt>
      <trkpt lat="49.51417" lon="0.92204">
        <ele>75</ele>
        <time>2017-12-21T20:44:00Z</time>
      </trkpt>
      <trkpt lat="49.51481" lon="0.92165">
        <ele>59</ele>
        <time>2017-12-21T20:46:00Z</time>
      </trkpt>
      <trkpt lat="49.5161" lon="0.92213">
        <ele>47</ele>
        <time>2017-12-21T20:48:00Z</time>
      </trkpt>
      <trkpt lat="49.51704" lon="0.92277">
        <ele>41</ele>
        <time>2017-12-21T20:50:00Z</time>
      </trkpt>
      <trkpt lat="49.51727" lon="0.92221">
        <ele>31</ele>
        <time>2017-12-21T20:52:00Z</time>
      </trkpt>
      <trkpt lat="49.51771" lon="0.92187">
        <ele>24</ele>
        <time>2017-12-21T20:54:00Z</time>
      </trkpt>
      <trkpt lat="49.51515" lon="0.91976">
        <ele>26</ele>
        <time>2017-12-21T20:56:00Z</time>
      </trkpt>
      <trkpt lat="49.51562" lon="0.91702">
        <ele>19</ele>
        <time>2017-12-21T20:58:00Z</time>
      </trkpt>
      <trkpt lat="49.51607" lon="0.91599">
        <ele>24</ele>
        <time>2017-12-21T21:00:00Z</time>
      </trkpt>
      <trkpt lat="49.51671" lon="0.91522">
        <ele>32</ele>
        <time>2017-12-21T21:02:00Z</time>
      </trkpt>
      <trkpt lat="49.51654" lon="0.91423">
        <ele>31</ele>
        <time>2017-12-21T21:04:00Z</time>
      </trkpt>
      <trkpt lat="49.51607" lon="0.91453">
        <ele>27</ele>
        <time>2017-12-21T21:06:00Z</time>
      </trkpt>
      <trkpt lat="49.51348" lon="0.90929">
        <ele>49</ele>
        <time>2017-12-21T21:08:00Z</time>
      </trkpt>
      <trkpt lat="49.51381" lon="0.90758">
        <ele>48</ele>
        <time>2017-12-21T21:10:00Z</time>
      </trkpt>
      <trkpt lat="49.51161" lon="0.90522">
        <ele>59</ele>
        <time>2017-12-21T21:12:00Z</time>
      </trkpt>
      <trkpt lat="49.51091" lon="0.90586">
        <ele>49</ele>
        <time>2017-12-21T21:14:00Z</time>
      </trkpt>
      <trkpt lat="49.50974" lon="0.90268">
        <ele>30</ele>
        <time>2017-12-21T21:16:00Z</time>
      </trkpt>
      <trkpt lat="49.50944" lon="0.90187">
        <ele>30</ele>
        <time>2017-12-21T21:18:00Z</time>
      </trkpt>
      <trkpt lat="49.50902" lon="0.90178">
        <ele>20</ele>
        <time>2017-12-21T21:20:00Z</time>
      </trkpt>
      <trkpt lat="49.50849" lon="0.89899">
        <ele>22</ele>
        <time>2017-12-21T21:22:00Z</time>
      </trkpt>
      <trkpt lat="49.50746" lon="0.89711">
        <ele>19</ele>
        <time>2017-12-21T21:24:00Z</time>
      </trkpt>
      <trkpt lat="49.50615" lon="0.89582">
        <ele>17</ele>
        <time>2017-12-21T21:26:00Z</time>
      </trkpt>
      <trkpt lat="49.50311" lon="0.89453">
        <ele>18</ele>
        <time>2017-12-21T21:28:00Z</time>
      </trkpt>
      <trkpt lat="49.50158" lon="0.89492">
        <ele>10</ele>
        <time>2017-12-21T21:30:00Z</time>
      </trkpt>
      <trkpt lat="49.49993" lon="0.8947">
        <ele>10</ele>
        <time>2017-12-21T21:32:00Z</time>
      </trkpt>
      <trkpt lat="49.49837" lon="0.89363">
        <ele>9</ele>
        <time>2017-12-21T21:34:00Z</time>
      </trkpt>
      <trkpt lat="49.49745" lon="0.89264">
        <ele>10</ele>
        <time>2017-12-21T21:36:00Z</time>
      </trkpt>
      <trkpt lat="49.49525" lon="0.88904">
        <ele>10</ele>
        <time>2017-12-21T21:38:00Z</time>
      </trkpt>
      <trkpt lat="49.49444" lon="0.88693">
        <ele>10</ele>
        <time>2017-12-21T21:40:00Z</time>
      </trkpt>
      <trkpt lat="49.49391" lon="0.88393">
        <ele>13</ele>
        <time>2017-12-21T21:42:00Z</time>
      </trkpt>
      <trkpt lat="49.49405" lon="0.88299">
        <ele>16</ele>
        <time>2017-12-21T21:44:00Z</time>
      </trkpt>
      <trkpt lat="49.49383" lon="0.88183">
        <ele>17</ele>
        <time>2017-12-21T21:46:00Z</time>
      </trkpt>
      <trkpt lat="49.49179" lon="0.87908">
        <ele>18</ele>
        <time>2017-12-21T21:48:00Z</time>
      </trkpt>
      <trkpt lat="49.4911" lon="0.87874">
        <ele>13</ele>
        <time>2017-12-21T21:50:00Z</time>
      </trkpt>
      <trkpt lat="49.49015" lon="0.87685">
        <ele>16</ele>
        <time>2017-12-21T21:52:00Z</time>
      </trkpt>
      <trkpt lat="49.48948" lon="0.87612">
        <ele>18</ele>
        <time>2017-12-21T21:54:00Z</time>
      </trkpt>
      <trkpt lat="49.48881" lon="0.87578">
        <ele>13</ele>
        <time>2017-12-21T21:56:00Z</time>
      </trkpt>
      <trkpt lat="49.48837" lon="0.87573">
        <ele>12</ele>
        <time>2017-12-21T21:58:00Z</time>
      </trkpt>
      <trkpt lat="49.48739" lon="0.87586">
        <ele>10</ele>
        <time>2017-12-21T22:00:00Z</time>
      </trkpt>
      <trkpt lat="49.48608" lon="0.87513">
        <ele>10</ele>
        <time>2017-12-21T22:02:00Z</time>
      </trkpt>
      <trkpt lat="49.48558" lon="0.87462">
        <ele>10</ele>
        <time>2017-12-21T22:04:00Z</time>
      </trkpt>
      <trkpt lat="49.48549" lon="0.87372">
        <ele>12</ele>
        <time>2017-12-21T22:06:00Z</time>
      </trkpt>
      <trkpt lat="49.48519" lon="0.87333">
        <ele>10</ele>
        <time>2017-12-21T22:08:00Z</time>
      </trkpt>
      <trkpt lat="49.48438" lon="0.87101">
        <ele>11</ele>
        <time>2017-12-21T22:10:00Z</time>
      </trkpt>
      <trkpt lat="49.48365" lon="0.8705">
        <ele>14</ele>
        <time>2017-12-21T22:12:00Z</time>
      </trkpt>
      <trkpt lat="49.48126" lon="0.86977">
        <ele>18</ele>
        <time>2017-12-21T22:14:00Z</time>
      </trkpt>
      <trkpt lat="49.47925" lon="0.86848">
        <ele>15</ele>
        <time>2017-12-21T22:16:00Z</time>
      </trkpt>
      <trkpt lat="49.47961" lon="0.86719">
        <ele>35</ele>
        <time>2017-12-21T22:18:00Z</time>
      </trkpt>
      <trkpt lat="49.47978" lon="0.86642">
        <ele>48</ele>
        <time>2017-12-21T22:20:00Z</time>
      </trkpt>
      <trkpt lat="49.48014" lon="0.86591">
        <ele>59</ele>
        <time>2017-12-21T22:22:00Z</time>
      </trkpt>
      <trkpt lat="49.48025" lon="0.86518">
        <ele>68</ele>
        <time>2017-12-21T22:24:00Z</time>
      </trkpt>
      <trkpt lat="49.48064" lon="0.86449">
        <ele>72</ele>
        <time>2017-12-21T22:26:00Z</time>
      </trkpt>
      <trkpt lat="49.48095" lon="0.86385">
        <ele>74</ele>
        <time>2017-12-21T22:28:00Z</time>
      </trkpt>
      <trkpt lat="49.48101" lon="0.8632">
        <ele>78</ele>
        <time>2017-12-21T22:30:00Z</time>
      </trkpt>
      <trkpt lat="49.48064" lon="0.86294">
        <ele>79</ele>
        <time>2017-12-21T22:32:00Z</time>
      </trkpt>
      <trkpt lat="49.47964" lon="0.86016">
        <ele>83</ele>
        <time>2017-12-21T22:34:00Z</time>
      </trkpt>
      <trkpt lat="49.4793" lon="0.86093">
        <ele>83</ele>
        <time>2017-12-21T22:36:00Z</time>
      </trkpt>
      <trkpt lat="49.47844" lon="0.86028">
        <ele>85</ele>
        <time>2017-12-21T22:38:00Z</time>
      </trkpt>
      <trkpt lat="49.47802" lon="0.85904">
        <ele>86</ele>
        <time>2017-12-21T22:40:00Z</time>
      </trkpt>
      <trkpt lat="49.47785" lon="0.85801">
        <ele>86</ele>
        <time>2017-12-21T22:42:00Z</time>
      </trkpt>
      <trkpt lat="49.47713" lon="0.85681">
        <ele>90</ele>
        <time>2017-12-21T22:44:00Z</time>
      </trkpt>
      <trkpt lat="49.47688" lon="0.85067">
        <ele>93</ele>
        <time>2017-12-21T22:46:00Z</time>
      </trkpt>
      <trkpt lat="49.47632" lon="0.84685">
        <ele>90</ele>
        <time>2017-12-21T22:48:00Z</time>
      </trkpt>
      <trkpt lat="49.4766" lon="0.84441">
        <ele>77</ele>
        <time>2017-12-21T22:50:00Z</time>
      </trkpt>
      <trkpt lat="49.47699" lon="0.84196">
        <ele>78</ele>
        <time>2017-12-21T22:52:00Z</time>
      </trkpt>
      <trkpt lat="49.4766" lon="0.84076">
        <ele>71</ele>
        <time>2017-12-21T22:54:00Z</time>
      </trkpt>
      <trkpt lat="49.47666" lon="0.83981">
        <ele>61</ele>
        <time>2017-12-21T22:56:00Z</time>
      </trkpt>
      <trkpt lat="49.47663" lon="0.83891">
        <ele>52</ele>
        <time>2017-12-21T22:58:00Z</time>
      </trkpt>
      <trkpt lat="49.47696" lon="0.8378">
        <ele>39</ele>
        <time>2017-12-21T23:00:00Z</time>
      </trkpt>
      <trkpt lat="49.47562" lon="0.83466">
        <ele>28</ele>
        <time>2017-12-21T23:02:00Z</time>
      </trkpt>
      <trkpt lat="49.47537" lon="0.82973">
        <ele>51</ele>
        <time>2017-12-21T23:04:00Z</time>
      </trkpt>
      <trkpt lat="49.47473" lon="0.82668">
        <ele>62</ele>
        <time>2017-12-21T23:06:00Z</time>
      </trkpt>
      <trkpt lat="49.47462" lon="0.82496">
        <ele>66</ele>
        <time>2017-12-21T23:08:00Z</time>
      </trkpt>
      <trkpt lat="49.4735" lon="0.82192">
        <ele>75</ele>
        <time>2017-12-21T23:10:00Z</time>
      </trkpt>
      <trkpt lat="49.47693" lon="0.82063">
        <ele>88</ele>
        <time>2017-12-21T23:12:00Z</time>
      </trkpt>
      <trkpt lat="49.47939" lon="0.82067">
        <ele>110</ele>
        <time>2017-12-21T23:14:00Z</time>
      </trkpt>
      <trkpt lat="49.47939" lon="0.81939">
        <ele>109</ele>
        <time>2017-12-21T23:16:00Z</time>
      </trkpt>
      <trkpt lat="49.47995" lon="0.81831">
        <ele>107</ele>
        <time>2017-12-21T23:18:00Z</time>
      </trkpt>
      <trkpt lat="49.48128" lon="0.8175">
        <ele>115</ele>
        <time>2017-12-21T23:20:00Z</time>
      </trkpt>
      <trkpt lat="49.48271" lon="0.81728">
        <ele>118</ele>
        <time>2017-12-21T23:22:00Z</time>
      </trkpt>
      <trkpt lat="49.48324" lon="0.8166">
        <ele>116</ele>
        <time>2017-12-21T23:24:00Z</time>
      </trkpt>
      <trkpt lat="49.48271" lon="0.81355">
        <ele>77</ele>
        <time>2017-12-21T23:26:00Z</time>
      </trkpt>
      <trkpt lat="49.48438" lon="0.81175">
        <ele>73</ele>
        <time>2017-12-21T23:28:00Z</time>
      </trkpt>
      <trkpt lat="49.4851" lon="0.8114">
        <ele>75</ele>
        <time>2017-12-21T23:30:00Z</time>
      </trkpt>
      <trkpt lat="49.48597" lon="0.81123">
        <ele>77</ele>
        <time>2017-12-21T23:32:00Z</time>
      </trkpt>
      <trkpt lat="49.48742" lon="0.81063">
        <ele>80</ele>
        <time>2017-12-21T23:34:00Z</time>
      </trkpt>
      <trkpt lat="49.48789" lon="0.80909">
        <ele>61</ele>
        <time>2017-12-21T23:36:00Z</time>
      </trkpt>
      <trkpt lat="49.48951" lon="0.80849">
        <ele>74</ele>
        <time>2017-12-21T23:38:00Z</time>
      </trkpt>
      <trkpt lat="49.49046" lon="0.80741">
        <ele>86</ele>
        <time>2017-12-21T23:40:00Z</time>
      </trkpt>
      <trkpt lat="49.49132" lon="0.80698">
        <ele>98</ele>
        <time>2017-12-21T23:42:00Z</time>
      </trkpt>
      <trkpt lat="49.49093" lon="0.80625">
        <ele>88</ele>
        <time>2017-12-21T23:44:00Z</time>
      </trkpt>
      <trkpt lat="49.49185" lon="0.80484">
        <ele>86</ele>
        <time>2017-12-21T23:46:00Z</time>
      </trkpt>
      <trkpt lat="49.49269" lon="0.80342">
        <ele>76</ele>
        <time>2017-12-21T23:48:00Z</time>
      </trkpt>
      <trkpt lat="49.49358" lon="0.80248">
        <ele>73</ele>
        <time>2017-12-21T23:50:00Z</time>
      </trkpt>
      <trkpt lat="49.49405" lon="0.80209">
        <ele>72</ele>
        <time>2017-12-21T23:52:00Z</time>
      </trkpt>
      <trkpt lat="49.49478" lon="0.80149">
        <ele>69</ele>
        <time>2017-12-21T23:54:00Z</time>
      </trkpt>
      <trkpt lat="49.49486" lon="0.80089">
        <ele>55</ele>
        <time>2017-12-21T23:56:00Z</time>
      </trkpt>
      <trkpt lat="49.49531" lon="0.80059">
        <ele>57</ele>
        <time>2017-12-21T23:58:00Z</time>
      </trkpt>
      <trkpt lat="49.49592" lon="0.8008">
        <ele>72</ele>
        <time>2017-12-22T00:00:00Z</time>
      </trkpt>
      <trkpt lat="49.4962" lon="0.8002">
        <ele>69</ele>
        <time>2017-12-22T00:02:00Z</time>
      </trkpt>
      <trkpt lat="49.49637" lon="0.79844">
        <ele>50</ele>
        <time>2017-12-22T00:04:00Z</time>
      </trkpt>
      <trkpt lat="49.49717" lon="0.79793">
        <ele>59</ele>
        <time>2017-12-22T00:06:00Z</time>
      </trkpt>
      <trkpt lat="49.4979" lon="0.79741">
        <ele>58</ele>
        <time>2017-12-22T00:08:00Z</time>
      </trkpt>
      <trkpt lat="49.49857" lon="0.79771">
        <ele>66</ele>
        <time>2017-12-22T00:10:00Z</time>
      </trkpt>
      <trkpt lat="49.49896" lon="0.7984">
        <ele>72</ele>
        <time>2017-12-22T00:12:00Z</time>
      </trkpt>
      <trkpt lat="49.50007" lon="0.79823">
        <ele>61</ele>
        <time>2017-12-22T00:14:00Z</time>
      </trkpt>
      <trkpt lat="49.50138" lon="0.7987">
        <ele>65</ele>
        <time>2017-12-22T00:16:00Z</time>
      </trkpt>
      <trkpt lat="49.50175" lon="0.79836">
        <ele>67</ele>
        <time>2017-12-22T00:18:00Z</time>
      </trkpt>
      <trkpt lat="49.50127" lon="0.79733">
        <ele>67</ele>
        <time>2017-12-22T00:20:00Z</time>
      </trkpt>
      <trkpt lat="49.50066" lon="0.7963">
        <ele>67</ele>
        <time>2017-12-22T00:22:00Z</time>
      </trkpt>
      <trkpt lat="49.50041" lon="0.79505">
        <ele>67</ele>
        <time>2017-12-22T00:24:00Z</time>
      </trkpt>
      <trkpt lat="49.50041" lon="0.79419">
        <ele>62</ele>
        <time>2017-12-22T00:26:00Z</time>
      </trkpt>
      <trkpt lat="49.50147" lon="0.79196">
        <ele>57</ele>
        <time>2017-12-22T00:28:00Z</time>
      </trkpt>
      <trkpt lat="49.50227" lon="0.7914">
        <ele>60</ele>
        <time>2017-12-22T00:30:00Z</time>
      </trkpt>
      <trkpt lat="49.50314" lon="0.7902">
        <ele>65</ele>
        <time>2017-12-22T00:32:00Z</time>
      </trkpt>
      <trkpt lat="49.50395" lon="0.78896">
        <ele>53</ele>
        <time>2017-12-22T00:34:00Z</time>
      </trkpt>
      <trkpt lat="49.50453" lon="0.78827">
        <ele>46</ele>
        <time>2017-12-22T00:36:00Z</time>
      </trkpt>
      <trkpt lat="49.50531" lon="0.78849">
        <ele>46</ele>
        <time>2017-12-22T00:38:00Z</time>
      </trkpt>
      <trkpt lat="49.50565" lon="0.78943">
        <ele>48</ele>
        <time>2017-12-22T00:40:00Z</time>
      </trkpt>
      <trkpt lat="49.50604" lon="0.7899">
        <ele>50</ele>
        <time>2017-12-22T00:42:00Z</time>
      </trkpt>
      <trkpt lat="49.50665" lon="0.78771">
        <ele>60</ele>
        <time>2017-12-22T00:44:00Z</time>
      </trkpt>
      <trkpt lat="49.50637" lon="0.78621">
        <ele>54</ele>
        <time>2017-12-22T00:46:00Z</time>
      </trkpt>
      <trkpt lat="49.50668" lon="0.78557">
        <ele>57</ele>
        <time>2017-12-22T00:48:00Z</time>
      </trkpt>
      <trkpt lat="49.5071" lon="0.78527">
        <ele>63</ele>
        <time>2017-12-22T00:50:00Z</time>
      </trkpt>
      <trkpt lat="49.50765" lon="0.78514">
        <ele>74</ele>
        <time>2017-12-22T00:52:00Z</time>
      </trkpt>
      <trkpt lat="49.50796" lon="0.7845">
        <ele>73</ele>
        <time>2017-12-22T00:54:00Z</time>
      </trkpt>
      <trkpt lat="49.50885" lon="0.78407">
        <ele>83</ele>
        <time>2017-12-22T00:56:00Z</time>
      </trkpt>
      <trkpt lat="49.50966" lon="0.78402">
        <ele>99</ele>
        <time>2017-12-22T00:58:00Z</time>
      </trkpt>
      <trkpt lat="49.50974" lon="0.78329">
        <ele>90</ele>
        <time>2017-12-22T01:00:00Z</time>
      </trkpt>
      <trkpt lat="49.51052" lon="0.78171">
        <ele>83</ele>
        <time>2017-12-22T01:02:00Z</time>
      </trkpt>
      <trkpt lat="49.51125" lon="0.78076">
        <ele>75</ele>
        <time>2017-12-22T01:04:00Z</time>
      </trkpt>
      <trkpt lat="49.51217" lon="0.78158">
        <ele>82</ele>
        <time>2017-12-22T01:06:00Z</time>
      </trkpt>
      <trkpt lat="49.51231" lon="0.78334">
        <ele>99</ele>
        <time>2017-12-22T01:08:00Z</time>
      </trkpt>
      <trkpt lat="49.51239" lon="0.78608">
        <ele>119</ele>
        <time>2017-12-22T01:10:00Z</time>
      </trkpt>
      <trkpt lat="49.51334" lon="0.78673">
        <ele>120</ele>
        <time>2017-12-22T01:12:00Z</time>
      </trkpt>
      <trkpt lat="49.51651" lon="0.78488">
        <ele>115</ele>
        <time>2017-12-22T01:14:00Z</time>
      </trkpt>
      <trkpt lat="49.51657" lon="0.78565">
        <ele>112</ele>
        <time>2017-12-22T01:16:00Z</time>
      </trkpt>
      <trkpt lat="49.51841" lon="0.78583">
        <ele>114</ele>
        <time>2017-12-22T01:18:00Z</time>
      </trkpt>
      <trkpt lat="49.51858" lon="0.78437">
        <ele>119</ele>
        <time>2017-12-22T01:20:00Z</time>
      </trkpt>
      <trkpt lat="49.51855" lon="0.78166">
        <ele>111</ele>
        <time>2017-12-22T01:22:00Z</time>
      </trkpt>
      <trkpt lat="49.51888" lon="0.7808">
        <ele>111</ele>
        <time>2017-12-22T01:24:00Z</time>
      </trkpt>
      <trkpt lat="49.51883" lon="0.78016">
        <ele>108</ele>
        <time>2017-12-22T01:26:00Z</time>
      </trkpt>
      <trkpt lat="49.51902" lon="0.7796">
        <ele>106</ele>
        <time>2017-12-22T01:28:00Z</time>
      </trkpt>
      <trkpt lat="49.51908" lon="0.77909">
        <ele>102</ele>
        <time>2017-12-22T01:30:00Z</time>
      </trkpt>
      <trkpt lat="49.5198" lon="0.7784">
        <ele>109</ele>
        <time>2017-12-22T01:32:00Z</time>
      </trkpt>
      <trkpt lat="49.52" lon="0.77776">
        <ele>112</ele>
        <time>2017-12-22T01:34:00Z</time>
      </trkpt>
      <trkpt lat="49.52269" lon="0.77555">
        <ele>118</ele>
        <time>2017-12-22T01:36:00Z</time>
      </trkpt>
      <trkpt lat="49.5234" lon="0.77557">
        <ele>117</ele>
        <time>2017-12-22T01:38:00Z</time>
      </trkpt>
      <trkpt lat="49.52372" lon="0.77529">
        <ele>114</ele>
        <time>2017-12-22T01:40:00Z</time>
      </trkpt>
      <trkpt lat="49.52425" lon="0.77535">
        <ele>109</ele>
        <time>2017-12-22T01:42:00Z</time>
      </trkpt>
      <trkpt lat="49.52448" lon="0.77463">
        <ele>108</ele>
        <time>2017-12-22T01:44:00Z</time>
      </trkpt>
      <trkpt lat="49.52514" lon="0.77467">
        <ele>105</ele>
        <time>2017-12-22T01:46:00Z</time>
      </trkpt>
      <trkpt lat="49.52576" lon="0.77523">
        <ele>108</ele>
        <time>2017-12-22T01:48:00Z</time>
      </trkpt>
      <trkpt lat="49.52579" lon="0.77447">
        <ele>109</ele>
        <time>2017-12-22T01:50:00Z</time>
      </trkpt>
      <trkpt lat="49.52604" lon="0.77323">
        <ele>105</ele>
        <time>2017-12-22T01:52:00Z</time>
      </trkpt>
      <trkpt lat="49.52649" lon="0.77252">
        <ele>98</ele>
        <time>2017-12-22T01:54:00Z</time>
      </trkpt>
      <trkpt lat="49.52677" lon="0.77151">
        <ele>87</ele>
        <time>2017-12-22T01:56:00Z</time>
      </trkpt>
      <trkpt lat="49.52693" lon="0.77138">
        <ele>82</ele>
        <time>2017-12-22T01:58:00Z</time>
      </trkpt>
      <trkpt lat="49.52707" lon="0.77048">
        <ele>70</ele>
        <time>2017-12-22T02:00:00Z</time>
      </trkpt>
      <trkpt lat="49.52711" lon="0.77008">
        <ele>64</ele>
        <time>2017-12-22T02:02:00Z</time>
      </trkpt>
      <trkpt lat="49.52703" lon="0.76926">
        <ele>54</ele>
        <time>2017-12-22T02:04:00Z</time>
      </trkpt>
      <trkpt lat="49.52721" lon="0.76898">
        <ele>46</ele>
        <time>2017-12-22T02:06:00Z</time>
      </trkpt>
      <trkpt lat="49.52714" lon="0.76832">
        <ele>34</ele>
        <time>2017-12-22T02:08:00Z</time>
      </trkpt>
      <trkpt lat="49.52732" lon="0.76812">
        <ele>30</ele>
        <time>2017-12-22T02:10:00Z</time>
      </trkpt>
      <trkpt lat="49.52721" lon="0.7678">
        <ele>28</ele>
        <time>2017-12-22T02:12:00Z</time>
      </trkpt>
      <trkpt lat="49.52789" lon="0.76699">
        <ele>20</ele>
        <time>2017-12-22T02:14:00Z</time>
      </trkpt>
      <trkpt lat="49.52817" lon="0.76761">
        <ele>19</ele>
        <time>2017-12-22T02:16:00Z</time>
      </trkpt>
      <trkpt lat="49.52961" lon="0.76677">
        <ele>15</ele>
        <time>2017-12-22T02:18:00Z</time>
      </trkpt>
      <trkpt lat="49.52972" lon="0.76632">
        <ele>20</ele>
        <time>2017-12-22T02:20:00Z</time>
      </trkpt>
      <trkpt lat="49.52951" lon="0.76538">
        <ele>22</ele>
        <time>2017-12-22T02:22:00Z</time>
      </trkpt>
      <trkpt lat="49.52927" lon="0.76445">
        <ele>19</ele>
        <time>2017-12-22T02:24:00Z</time>
      </trkpt>
      <trkpt lat="49.52919" lon="0.76291">
        <ele>22</ele>
        <time>2017-12-22T02:26:00Z</time>
      </trkpt>
      <trkpt lat="49.52925" lon="0.76227">
        <ele>27</ele>
        <time>2017-12-22T02:28:00Z</time>
      </trkpt>
      <trkpt lat="49.53" lon="0.76231">
        <ele>41</ele>
        <time>2017-12-22T02:30:00Z</time>
      </trkpt>
      <trkpt lat="49.53039" lon="0.76248">
        <ele>49</ele>
        <time>2017-12-22T02:32:00Z</time>
      </trkpt>
      <trkpt lat="49.53061" lon="0.76235">
        <ele>49</ele>
        <time>2017-12-22T02:34:00Z</time>
      </trkpt>
      <trkpt lat="49.53097" lon="0.76233">
        <ele>53</ele>
        <time>2017-12-22T02:36:00Z</time>
      </trkpt>
      <trkpt lat="49.53146" lon="0.76224">
        <ele>56</ele>
        <time>2017-12-22T02:38:00Z</time>
      </trkpt>
      <trkpt lat="49.53171" lon="0.76184">
        <ele>52</ele>
        <time>2017-12-22T02:40:00Z</time>
      </trkpt>
      <trkpt lat="49.53204" lon="0.76175">
        <ele>53</ele>
        <time>2017-12-22T02:42:00Z</time>
      </trkpt>
      <trkpt lat="49.53256" lon="0.76098">
        <ele>43</ele>
        <time>2017-12-22T02:44:00Z</time>
      </trkpt>
      <trkpt lat="49.53402" lon="0.76048">
        <ele>33</ele>
        <time>2017-12-22T02:46:00Z</time>
      </trkpt>
      <trkpt lat="49.53438" lon="0.76048">
        <ele>32</ele>
        <time>2017-12-22T02:48:00Z</time>
      </trkpt>
      <trkpt lat="49.53522" lon="0.76151">
        <ele>46</ele>
        <time>2017-12-22T02:50:00Z</time>
      </trkpt>
      <trkpt lat="49.53544" lon="0.76149">
        <ele>49</ele>
        <time>2017-12-22T02:52:00Z</time>
      </trkpt>
      <trkpt lat="49.5356" lon="0.76023">
        <ele>36</ele>
        <time>2017-12-22T02:54:00Z</time>
      </trkpt>
      <trkpt lat="49.5361" lon="0.75971">
        <ele>35</ele>
        <time>2017-12-22T02:56:00Z</time>
      </trkpt>
      <trkpt lat="49.53692" lon="0.75924">
        <ele>35</ele>
        <time>2017-12-22T02:58:00Z</time>
      </trkpt>
      <trkpt lat="49.53727" lon="0.75888">
        <ele>28</ele>
        <time>2017-12-22T03:00:00Z</time>
      </trkpt>
      <trkpt lat="49.5377" lon="0.75913">
        <ele>38</ele>
        <time>2017-12-22T03:02:00Z</time>
      </trkpt>
      <trkpt lat="49.53874" lon="0.75918">
        <ele>39</ele>
        <time>2017-12-22T03:04:00Z</time>
      </trkpt>
      <trkpt lat="49.5431" lon="0.76094">
        <ele>58</ele>
        <time>2017-12-22T03:06:00Z</time>
      </trkpt>
      <trkpt lat="49.54338" lon="0.76119">
        <ele>62</ele>
        <time>2017-12-22T03:08:00Z</time>
      </trkpt>
      <trkpt lat="49.54402" lon="0.76121">
        <ele>54</ele>
        <time>2017-12-22T03:10:00Z</time>
      </trkpt>
      <trkpt lat="49.54426" lon="0.76151">
        <ele>53</ele>
        <time>2017-12-22T03:12:00Z</time>
      </trkpt>
      <trkpt lat="49.54416" lon="0.76233">
        <ele>63</ele>
        <time>2017-12-22T03:14:00Z</time>
      </trkpt>
      <trkpt lat="49.54422" lon="0.7639">
        <ele>71</ele>
        <time>2017-12-22T03:16:00Z</time>
      </trkpt>
      <trkpt lat="49.54431" lon="0.76418">
        <ele>71</ele>
        <time>2017-12-22T03:18:00Z</time>
      </trkpt>
      <trkpt lat="49.54534" lon="0.76355">
        <ele>50</ele>
        <time>2017-12-22T03:20:00Z</time>
      </trkpt>
      <trkpt lat="49.54562" lon="0.76227">
        <ele>42</ele>
        <time>2017-12-22T03:22:00Z</time>
      </trkpt>
      <trkpt lat="49.54604" lon="0.76102">
        <ele>38</ele>
        <time>2017-12-22T03:24:00Z</time>
      </trkpt>
      <trkpt lat="49.54615" lon="0.7587">
        <ele>19</ele>
        <time>2017-12-22T03:26:00Z</time>
      </trkpt>
      <trkpt lat="49.5454" lon="0.75686">
        <ele>8</ele>
        <time>2017-12-22T03:28:00Z</time>
      </trkpt>
      <trkpt lat="49.54543" lon="0.75579">
        <ele>13</ele>
        <time>2017-12-22T03:30:00Z</time>
      </trkpt>
      <trkpt lat="49.54501" lon="0.75583">
        <ele>12</ele>
        <time>2017-12-22T03:32:00Z</time>
      </trkpt>
      <trkpt lat="49.54506" lon="0.75506">
        <ele>20</ele>
        <time>2017-12-22T03:34:00Z</time>
      </trkpt>
      <trkpt lat="49.54445" lon="0.75274">
        <ele>52</ele>
        <time>2017-12-22T03:36:00Z</time>
      </trkpt>
      <trkpt lat="49.54448" lon="0.75094">
        <ele>87</ele>
        <time>2017-12-22T03:38:00Z</time>
      </trkpt>
      <trkpt lat="49.54442" lon="0.74926">
        <ele>100</ele>
        <time>2017-12-22T03:40:00Z</time>
      </trkpt>
      <trkpt lat="49.54481" lon="0.74832">
        <ele>97</ele>
        <time>2017-12-22T03:42:00Z</time>
      </trkpt>
      <trkpt lat="49.54493" lon="0.74729">
        <ele>90</ele>
        <time>2017-12-22T03:44:00Z</time>
      </trkpt>
      <trkpt lat="49.54317" lon="0.74244">
        <ele>112</ele>
        <time>2017-12-22T03:46:00Z</time>
      </trkpt>
      <trkpt lat="49.54309" lon="0.74081">
        <ele>118</ele>
        <time>2017-12-22T03:48:00Z</time>
      </trkpt>
      <trkpt lat="49.5425" lon="0.73772">
        <ele>118</ele>
        <time>2017-12-22T03:50:00Z</time>
      </trkpt>
      <trkpt lat="49.54122" lon="0.73737">
        <ele>117</ele>
        <time>2017-12-22T03:52:00Z</time>
      </trkpt>
      <trkpt lat="49.53821" lon="0.73592">
        <ele>115</ele>
        <time>2017-12-22T03:54:00Z</time>
      </trkpt>
      <trkpt lat="49.53755" lon="0.7357">
        <ele>113</ele>
        <time>2017-12-22T03:56:00Z</time>
      </trkpt>
      <trkpt lat="49.5366" lon="0.73437">
        <ele>111</ele>
        <time>2017-12-22T03:58:00Z</time>
      </trkpt>
      <trkpt lat="49.53613" lon="0.73467">
        <ele>111</ele>
        <time>2017-12-22T04:00:00Z</time>
      </trkpt>
      <trkpt lat="49.5356" lon="0.73403">
        <ele>113</ele>
        <time>2017-12-22T04:02:00Z</time>
      </trkpt>
      <trkpt lat="49.53585" lon="0.7327">
        <ele>111</ele>
        <time>2017-12-22T04:04:00Z</time>
      </trkpt>
      <trkpt lat="49.53607" lon="0.73107">
        <ele>111</ele>
        <time>2017-12-22T04:06:00Z</time>
      </trkpt>
      <trkpt lat="49.53674" lon="0.73012">
        <ele>118</ele>
        <time>2017-12-22T04:08:00Z</time>
      </trkpt>
      <trkpt lat="49.53991" lon="0.72845">
        <ele>105</ele>
        <time>2017-12-22T04:10:00Z</time>
      </trkpt>
      <trkpt lat="49.54025" lon="0.72995">
        <ele>104</ele>
        <time>2017-12-22T04:12:00Z</time>
      </trkpt>
      <trkpt lat="49.54078" lon="0.73025">
        <ele>96</ele>
        <time>2017-12-22T04:14:00Z</time>
      </trkpt>
      <trkpt lat="49.54069" lon="0.72901">
        <ele>90</ele>
        <time>2017-12-22T04:16:00Z</time>
      </trkpt>
      <trkpt lat="49.54089" lon="0.72819">
        <ele>84</ele>
        <time>2017-12-22T04:18:00Z</time>
      </trkpt>
      <trkpt lat="49.54247" lon="0.72635">
        <ele>63</ele>
        <time>2017-12-22T04:20:00Z</time>
      </trkpt>
      <trkpt lat="49.54253" lon="0.72514">
        <ele>64</ele>
        <time>2017-12-22T04:22:00Z</time>
      </trkpt>
      <trkpt lat="49.542" lon="0.72257">
        <ele>57</ele>
        <time>2017-12-22T04:24:00Z</time>
      </trkpt>
      <trkpt lat="49.5425" lon="0.71987">
        <ele>36</ele>
        <time>2017-12-22T04:26:00Z</time>
      </trkpt>
      <trkpt lat="49.54273" lon="0.71806">
        <ele>24</ele>
        <time>2017-12-22T04:28:00Z</time>
      </trkpt>
      <trkpt lat="49.54345" lon="0.71609">
        <ele>24</ele>
        <time>2017-12-22T04:30:00Z</time>
      </trkpt>
      <trkpt lat="49.54601" lon="0.71609">
        <ele>65</ele>
        <time>2017-12-22T04:32:00Z</time>
      </trkpt>
      <trkpt lat="49.54685" lon="0.71416">
        <ele>83</ele>
        <time>2017-12-22T04:34:00Z</time>
      </trkpt>
      <trkpt lat="49.54701" lon="0.7133">
        <ele>89</ele>
        <time>2017-12-22T04:36:00Z</time>
      </trkpt>
      <trkpt lat="49.54852" lon="0.71107">
        <ele>105</ele>
        <time>2017-12-22T04:38:00Z</time>
      </trkpt>
      <trkpt lat="49.54966" lon="0.71102">
        <ele>108</ele>
        <time>2017-12-22T04:40:00Z</time>
      </trkpt>
      <trkpt lat="49.55008" lon="0.71034">
        <ele>111</ele>
        <time>2017-12-22T04:42:00Z</time>
      </trkpt>
      <trkpt lat="49.55111" lon="0.71029">
        <ele>112</ele>
        <time>2017-12-22T04:44:00Z</time>
      </trkpt>
      <trkpt lat="49.55203" lon="0.71111">
        <ele>116</ele>
        <time>2017-12-22T04:46:00Z</time>
      </trkpt>
      <trkpt lat="49.55264" lon="0.71107">
        <ele>122</ele>
        <time>2017-12-22T04:48:00Z</time>
      </trkpt>
      <trkpt lat="49.55389" lon="0.71223">
        <ele>129</ele>
        <time>2017-12-22T04:50:00Z</time>
      </trkpt>
      <trkpt lat="49.55498" lon="0.71132">
        <ele>132</ele>
        <time>2017-12-22T04:52:00Z</time>
      </trkpt>
      <trkpt lat="49.55573" lon="0.71163">
        <ele>125</ele>
        <time>2017-12-22T04:54:00Z</time>
      </trkpt>
      <trkpt lat="49.55573" lon="0.71308">
        <ele>122</ele>
        <time>2017-12-22T04:56:00Z</time>
      </trkpt>
      <trkpt lat="49.55545" lon="0.71429">
        <ele>121</ele>
        <time>2017-12-22T04:58:00Z</time>
      </trkpt>
      <trkpt lat="49.55595" lon="0.71373">
        <ele>114</ele>
        <time>2017-12-22T05:00:00Z</time>
      </trkpt>
      <trkpt lat="49.55667" lon="0.71218">
        <ele>102</ele>
        <time>2017-12-22T05:02:00Z</time>
      </trkpt>
      <trkpt lat="49.5569" lon="0.71111">
        <ele>100</ele>
        <time>2017-12-22T05:04:00Z</time>
      </trkpt>
      <trkpt lat="49.55667" lon="0.70939">
        <ele>93</ele>
        <time>2017-12-22T05:06:00Z</time>
      </trkpt>
      <trkpt lat="49.55687" lon="0.70823">
        <ele>92</ele>
        <time>2017-12-22T05:08:00Z</time>
      </trkpt>
      <trkpt lat="49.55765" lon="0.70635">
        <ele>81</ele>
        <time>2017-12-22T05:10:00Z</time>
      </trkpt>
      <trkpt lat="49.55553" lon="0.70274">
        <ele>74</ele>
        <time>2017-12-22T05:12:00Z</time>
      </trkpt>
      <trkpt lat="49.55492" lon="0.70283">
        <ele>67</ele>
        <time>2017-12-22T05:14:00Z</time>
      </trkpt>
      <trkpt lat="49.55431" lon="0.70193">
        <ele>70</ele>
        <time>2017-12-22T05:16:00Z</time>
      </trkpt>
      <trkpt lat="49.55347" lon="0.69991">
        <ele>78</ele>
        <time>2017-12-22T05:18:00Z</time>
      </trkpt>
      <trkpt lat="49.55317" lon="0.69836">
        <ele>81</ele>
        <time>2017-12-22T05:20:00Z</time>
      </trkpt>
      <trkpt lat="49.55464" lon="0.69643">
        <ele>88</ele>
        <time>2017-12-22T05:22:00Z</time>
      </trkpt>
      <trkpt lat="49.55539" lon="0.69639">
        <ele>92</ele>
        <time>2017-12-22T05:24:00Z</time>
      </trkpt>
      <trkpt lat="49.5569" lon="0.69476">
        <ele>99</ele>
        <time>2017-12-22T05:26:00Z</time>
      </trkpt>
      <trkpt lat="49.55759" lon="0.69515">
        <ele>105</ele>
        <time>2017-12-22T05:28:00Z</time>
      </trkpt>
      <trkpt lat="49.55857" lon="0.69497">
        <ele>111</ele>
        <time>2017-12-22T05:30:00Z</time>
      </trkpt>
      <trkpt lat="49.5594" lon="0.69519">
        <ele>116</ele>
        <time>2017-12-22T05:32:00Z</time>
      </trkpt>
      <trkpt lat="49.55968" lon="0.69579">
        <ele>120</ele>
        <time>2017-12-22T05:34:00Z</time>
      </trkpt>
      <trkpt lat="49.56077" lon="0.69648">
        <ele>124</ele>
        <time>2017-12-22T05:36:00Z</time>
      </trkpt>
      <trkpt lat="49.56157" lon="0.69643">
        <ele>123</ele>
        <time>2017-12-22T05:38:00Z</time>
      </trkpt>
      <trkpt lat="49.56308" lon="0.69695">
        <ele>128</ele>
        <time>2017-12-22T05:40:00Z</time>
      </trkpt>
      <trkpt lat="49.56642" lon="0.69939">
        <ele>135</ele>
        <time>2017-12-22T05:42:00Z</time>
      </trkpt>
      <trkpt lat="49.56792" lon="0.70017">
        <ele>139</ele>
        <time>2017-12-22T05:44:00Z</time>
      </trkpt>
      <trkpt lat="49.5692" lon="0.69995">
        <ele>140</ele>
        <time>2017-12-22T05:46:00Z</time>
      </trkpt>
      <trkpt lat="49.57043" lon="0.70218">
        <ele>144</ele>
        <time>2017-12-22T05:48:00Z</time>
      </trkpt>
      <trkpt lat="49.57051" lon="0.70394">
        <ele>145</ele>
        <time>2017-12-22T05:50:00Z</time>
      </trkpt>
      <trkpt lat="49.57084" lon="0.70665">
        <ele>149</ele>
        <time>2017-12-22T05:52:00Z</time>
      </trkpt>
      <trkpt lat="49.5712" lon="0.70776">
        <ele>149</ele>
        <time>2017-12-22T05:54:00Z</time>
      </trkpt>
      <trkpt lat="49.57126" lon="0.70978">
        <ele>145</ele>
        <time>2017-12-22T05:56:00Z</time>
      </trkpt>
      <trkpt lat="49.57151" lon="0.71051">
        <ele>144</ele>
        <time>2017-12-22T05:58:00Z</time>
      </trkpt>
      <trkpt lat="49.57093" lon="0.71407">
        <ele>144</ele>
        <time>2017-12-22T06:00:00Z</time>
      </trkpt>
      <trkpt lat="49.57034" lon="0.71605">
        <ele>143</ele>
        <time>2017-12-22T06:02:00Z</time>
      </trkpt>
      <trkpt lat="49.57017" lon="0.7172">
        <ele>140</ele>
        <time>2017-12-22T06:04:00Z</time>
      </trkpt>
    </trkseg>
  </trk>
</gpx>